Station: Yunta  

  Atmospheric Gas Attenuation - ITU Rec 676-11   ----------------- dB/100km -----------------
Date Time Temp RH % AH g/m3 Dew Point Wind Direction Speed kph Gust kph Barometer mB Rainfall Since 9am 24GHz 47GHz 76GHz 122GHz 134GHz 241GHz
08/05 12:10 14.9 64 8.16 8.1 17 19 1029.9 0 18.6 25.5 38.2 100.1 92.6 318.2
08/05 12:00 15 64 8.21 8.3 20 30 1030.1 0 18.7 25.6 38.4 100.5 93.2 320.1
08/05 11:50 15 64 8.21 8.2 15 19 1030.2 0 18.7 25.6 38.4 100.5 93.2 320.2
08/05 11:40 14.8 66 8.36 8.5 11 13 1030.2 0 19.0 25.9 39.1 102.3 95.4 327.8
08/05 11:30 14.5 68 8.46 8.7 19 28 1030.3 0 19.2 26.1 39.6 103.8 97.1 333.7
08/05 11:20 14.9 64 8.16 8.3 19 20 1030.4 0 18.6 25.5 38.3 100.1 92.7 318.3
08/05 11:10 14.4 67 8.28 8.3 17 19 1030.5 0 18.9 25.9 39.0 102.0 94.8 325.9
08/05 11:00 13.9 70 8.39 8.5 17 28 1030.6 0 19.1 26.2 39.7 103.9 96.9 333.1
08/05 10:50 13.4 68 7.91 7.6 19 24 1030.6 0 18.1 25.5 38.0 99.4 91.2 313.0
08/05 10:40 13.6 70 8.24 8.2 17 19 1030.6 0 18.8 26.0 39.2 102.7 95.3 327.4
08/05 10:30 13.3 70 8.09 8 22 30 1030.6 0 18.5 25.9 38.8 101.4 93.7 321.7
08/05 10:20 13.4 69 8.02 7.8 20 26 1030.7 0 18.4 25.7 38.4 100.6 92.6 318.0
08/05 10:10 12.8 70 7.84 7.6 22 28 1030.7 0 18.0 25.6 38.0 99.4 91.0 312.1
08/05 10:00 12.9 71 8 7.8 19 26 1030.7 0 18.3 25.8 38.6 101.0 93.0 319.1
08/05 09:50 12.8 73 8.18 8.2 17 22 1030.7 0 18.7 26.2 39.4 103.1 95.5 327.9
08/05 09:40 12.4 73 7.98 7.7 19 20 1030.7 0 18.3 26.0 38.8 101.4 93.3 320.2
08/05 09:30 12.3 74 8.04 7.8 15 19 1030.7 0 18.4 26.1 39.1 102.2 94.2 323.4
08/05 09:20 12.1 75 8.04 7.8 15 19 1030.8 0 18.5 26.1 39.2 102.5 94.5 324.3
08/05 09:10 11.6 77 8 7.7 13 20 1030.8 0 18.4 26.2 39.2 102.7 94.5 324.5
08/05 09:00 11 79 7.91 7.5 9 13 1030.8 0 18.2 26.3 39.2 102.5 94.1 322.7
08/05 08:50 10.9 79 7.86 7.4 11 11 1030.7 0 18.1 26.2 39.0 102.0 93.5 320.7
08/05 08:40 10.7 83 8.15 7.9 7 9 1030.7 0 18.8 26.7 40.3 105.5 97.7 335.4
08/05 08:30 10.2 84 8 7.6 7 11 1030.6 0 18.5 26.6 39.9 104.5 96.3 330.3
08/05 08:20 9.8 85 7.89 7.5 6 6 1030.6 0 18.2 26.6 39.7 103.8 95.2 326.7
08/05 08:10 9.3 88 7.91 7.5 7 7 1030.5 0 18.3 26.7 40.0 104.7 96.1 329.7
08/05 08:00 8.5 92 7.86 7.3 6 7 1030.3 0 18.2 26.9 40.2 105.2 96.4 330.6
08/05 07:50 7.7 91 7.38 6.3 6 7 1030.2 0 17.2 26.3 38.6 100.8 90.7 310.4
08/05 07:40 7.1 92 7.18 5.9 7 7 1030.1 0 16.8 26.1 38.0 99.3 88.6 303.0
08/05 07:30 6.9 91 7.01 5.5 6 7 1030 0 16.5 25.9 37.4 97.6 86.5 295.5
08/05 07:20 6.9 92 7.09 5.7 6 6 1029.9 0 16.7 26.0 37.7 98.5 87.6 299.4
08/05 07:10 6.7 91 6.92 5.3 6 7 1029.8 0 16.3 25.8 37.1 96.9 85.4 291.9
08/05 07:00 6.9 92 7.09 5.7 7 7 1029.8 0 16.7 26.0 37.7 98.5 87.6 299.4
08/05 06:50 6.8 92 7.04 5.6 7 7 1029.7 0 16.6 26.0 37.5 98.1 87.0 297.3
08/05 06:40 6.7 92 6.99 5.5 4 4 1029.6 0 16.4 25.9 37.4 97.6 86.4 295.2
08/05 06:30 6.9 91 7.01 5.5 0 0 1029.6 0 16.5 25.9 37.4 97.6 86.4 295.4
08/05 06:20 7.3 91 7.19 6 0 0 1029.6 0 16.9 26.1 37.9 99.1 88.5 302.6
08/05 06:10 7.5 91 7.29 6.2 2 2 1029.5 0 17.1 26.2 38.2 100.0 89.6 306.7
08/05 06:00 7.4 92 7.32 6.2 4 6 1029.4 0 17.1 26.3 38.4 100.4 90.1 308.5
08/05 05:50 7.2 91 7.15 5.8 4 4 1029.4 0 16.8 26.0 37.8 98.8 88.0 301.0
08/05 05:40 7.1 91 7.1 5.7 0 0 1029.4 0 16.7 26.0 37.6 98.3 87.4 299.0
08/05 05:30 7.5 91 7.29 6.1 2 4 1029.5 0 17.1 26.2 38.2 100.0 89.6 306.7
08/05 05:20 7.5 90 7.21 5.9 4 6 1029.6 0 16.9 26.1 37.9 99.1 88.5 302.8
08/05 05:10 7.4 90 7.16 5.8 6 6 1029.6 0 16.8 26.0 37.8 98.7 87.9 300.8
08/05 05:00 7 90 6.98 5.5 7 9 1029.7 0 16.4 25.8 37.2 97.2 85.9 293.6
08/05 04:50 6.7 92 6.99 5.5 7 7 1029.6 0 16.4 25.9 37.4 97.6 86.4 295.2
08/05 04:40 6.1 92 6.73 4.9 6 6 1029.7 0 15.9 25.7 36.6 95.5 83.5 284.9
08/05 04:30 5.8 94 6.74 4.9 7 9 1029.6 0 15.9 25.8 36.7 95.9 83.9 286.4
08/05 04:20 5 96 6.53 4.4 6 6 1029.7 0 15.5 25.6 36.2 94.6 81.9 279.1
08/05 04:10 4.2 96 6.19 3.6 4 4 1029.7 0 14.8 25.3 35.2 91.7 78.0 265.3
08/05 04:00 3.2 95 5.73 2.5 4 6 1029.7 0 13.9 24.8 33.7 87.7 72.6 246.3
08/05 03:50 2.5 94 5.41 1.6 4 4 1029.7 0 13.2 24.5 32.6 84.9 68.8 233.0
08/05 03:40 2.4 92 5.26 1.3 4 4 1029.7 0 12.9 24.2 32.0 83.3 66.8 226.1
08/05 03:30 3.1 93 5.57 2.1 2 4 1029.7 0 13.5 24.6 33.0 86.0 70.5 238.9
08/05 03:20 3 92 5.48 1.9 2 2 1029.7 0 13.3 24.4 32.7 85.1 69.3 234.9
08/05 03:10 2.8 92 5.4 1.7 2 4 1029.7 0 13.2 24.4 32.5 84.5 68.4 231.6
08/05 03:00 3 93 5.53 2 2 4 1029.6 0 13.5 24.5 32.9 85.7 70.0 237.2
08/05 02:50 3 92 5.48 1.9 4 4 1029.6 0 13.3 24.4 32.7 85.1 69.3 234.8
08/05 02:40 3 92 5.48 1.9 2 4 1029.7 0 13.3 24.4 32.7 85.1 69.3 234.9
08/05 02:30 2.8 93 5.46 1.8 0 4 1029.7 0 13.3 24.5 32.7 85.1 69.2 234.5
08/05 02:20 2.6 90 5.21 1.2 0 0 1029.8 0 12.8 24.1 31.8 82.6 66.0 223.1
08/05 02:10 3.2 90 5.43 1.8 4 6 1029.8 0 13.2 24.3 32.4 84.4 68.5 231.9
08/05 02:00 2.9 89 5.26 1.3 4 6 1029.8 0 12.9 24.1 31.8 82.8 66.4 224.6
08/05 01:50 3.3 90 5.47 1.9 4 6 1029.7 0 13.3 24.3 32.5 84.7 68.9 233.5
08/05 01:40 3.3 90 5.47 1.9 0 0 1029.8 0 13.3 24.3 32.5 84.7 68.9 233.5
08/05 01:30 3.5 90 5.54 2 0 0 1029.8 0 13.5 24.4 32.8 85.3 69.7 236.3
08/05 01:20 3.6 90 5.58 2.2 0 0 1029.8 0 13.5 24.4 32.9 85.6 70.2 237.9
08/05 01:10 3.6 90 5.58 2.2 0 0 1029.8 0 13.5 24.4 32.9 85.6 70.2 237.9
08/05 01:00 3.5 90 5.54 2 4 4 1029.8 0 13.5 24.4 32.8 85.3 69.7 236.3
08/05 00:50 3.8 91 5.71 2.4 4 4 1029.8 0 13.8 24.6 33.3 86.8 71.7 243.5
08/05 00:40 3.6 89 5.51 1.9 6 6 1029.8 0 13.4 24.3 32.6 84.8 69.2 234.5
08/05 00:30 3.8 90 5.65 2.3 6 7 1030 0 13.7 24.5 33.1 86.2 70.9 240.6
08/05 00:20 3.8 89 5.59 2.1 4 4 1030 0 13.6 24.4 32.8 85.5 70.1 237.8
08/05 00:10 4.1 88 5.64 2.3 6 6 1030 0 13.6 24.4 32.9 85.7 70.5 239.3
08/05 00:00 4.3 88 5.71 2.5 4 6 1030 0 13.8 24.5 33.1 86.3 71.3 242.0
07/05 23:50 4.4 87 5.69 2.4 4 6 1030 0 13.7 24.4 33.0 85.9 70.9 240.7
07/05 23:40 4.6 87 5.76 2.6 7 7 1030 0 13.9 24.5 33.2 86.5 71.7 243.4
07/05 23:30 5 83 5.64 2.4 7 9 1030 0 13.6 24.2 32.6 84.7 69.7 236.5
07/05 23:20 5.6 86 6.08 3.4 7 7 1030.1 0 14.5 24.7 34.1 88.9 75.1 255.5
07/05 23:10 5.4 86 6 3.2 9 11 1030.2 0 14.4 24.7 33.9 88.2 74.2 252.4
07/05 23:00 5.2 86 5.93 3.1 9 9 1030.2 0 14.2 24.6 33.7 87.7 73.5 249.7
07/05 22:50 5.3 84 5.83 2.8 7 7 1030.3 0 14.0 24.4 33.2 86.5 72.0 244.6
07/05 22:40 5.5 84 5.9 3 7 7 1030.2 0 14.2 24.5 33.4 87.0 72.8 247.3
07/05 22:30 5.3 84 5.83 2.8 7 9 1030.3 0 14.0 24.4 33.2 86.5 72.0 244.6
07/05 22:20 5.3 83 5.76 2.6 9 9 1030.3 0 13.9 24.3 32.9 85.7 71.1 241.3
07/05 22:10 5.7 83 5.91 3 9 11 1030.4 0 14.2 24.4 33.4 86.9 72.7 247.2
07/05 22:00 5.9 82 5.92 3.1 9 9 1030.3 0 14.2 24.4 33.3 86.8 72.7 247.0
07/05 21:50 6.1 81 5.92 3.1 7 7 1030.4 0 14.2 24.3 33.3 86.6 72.5 246.4
07/05 21:40 6.2 80 5.89 3.1 7 7 1030.3 0 14.1 24.3 33.1 86.2 72.0 244.7
07/05 21:30 6.1 82 5.99 3.3 6 7 1030.3 0 14.3 24.5 33.5 87.4 73.4 249.7
07/05 21:20 5.9 81 5.84 2.9 6 6 1030.1 0 14.0 24.3 33.0 85.9 71.6 243.2
07/05 21:10 6.4 80 5.96 3.2 7 7 1030 0 14.2 24.3 33.3 86.7 72.7 247.3
07/05 21:00 6.3 79 5.85 2.9 6 7 1030 0 14.0 24.2 32.9 85.6 71.3 242.4
07/05 20:50 6.8 77 5.89 3 6 6 1030 0 14.1 24.1 32.8 85.5 71.4 242.8
07/05 20:40 6.8 77 5.89 3 6 7 1030 0 14.1 24.1 32.8 85.5 71.4 242.8
07/05 20:30 7.2 75 5.89 3.1 7 9 1029.9 0 14.1 24.0 32.7 85.0 71.0 241.5
07/05 20:20 8 72 5.95 3.2 9 9 1029.9 0 14.2 23.9 32.6 84.8 71.1 241.8
07/05 20:10 7.6 77 6.21 3.8 15 17 1029.8 0 14.7 24.4 33.8 88.0 74.9 255.1
07/05 20:00 6.5 79 5.93 3.1 7 9 1029.6 0 14.2 24.2 33.1 86.2 72.2 245.5
07/05 19:50 6.8 77 5.89 3 7 7 1029.4 0 14.1 24.1 32.8 85.4 71.4 242.6
07/05 19:40 7 76 5.89 3 9 9 1029.4 0 14.1 24.0 32.7 85.2 71.2 242.0

Last Refresh: 08-May-2026 12:10:18

Bureau of Meteorology